sensor_id;sensor_type;location;lat;lon;timestamp;pressure;altitude;pressure_sealevel;temperature;humidity
51195;BME280;37259;49.972;19.850;2023-04-06T00:00:09;99070;;;-1;68.9
51195;BME280;37259;49.972;19.850;2023-04-06T00:01:09;99070;;;-1;68.9
51195;BME280;37259;49.972;19.850;2023-04-06T00:02:09;99070;;;-1.1;68.9
51195;BME280;37259;49.972;19.850;2023-04-06T00:03:09;99070;;;-1.1;68.9
51195;BME280;37259;49.972;19.850;2023-04-06T00:04:09;99070;;;-1.1;68.7
51195;BME280;37259;49.972;19.850;2023-04-06T00:05:09;99070;;;-1.1;68.7
51195;BME280;37259;49.972;19.850;2023-04-06T00:06:09;99070;;;-1.1;68.7
51195;BME280;37259;49.972;19.850;2023-04-06T00:07:09;99070;;;-1.1;68.7
51195;BME280;37259;49.972;19.850;2023-04-06T00:08:09;99070;;;-1.2;68.6
51195;BME280;37259;49.972;19.850;2023-04-06T00:09:09;99070;;;-1.2;68.6
51195;BME280;37259;49.972;19.850;2023-04-06T00:10:09;99070;;;-1.2;68.6
51195;BME280;37259;49.972;19.850;2023-04-06T00:11:09;99070;;;-1.2;68.7
51195;BME280;37259;49.972;19.850;2023-04-06T00:12:09;99070;;;-1.2;68.7
51195;BME280;37259;49.972;19.850;2023-04-06T00:13:09;99070;;;-1.2;69.1
51195;BME280;37259;49.972;19.850;2023-04-06T00:14:09;99070;;;-1.2;69.1
51195;BME280;37259;49.972;19.850;2023-04-06T00:15:10;99070;;;-1.2;69.1
51195;BME280;37259;49.972;19.850;2023-04-06T00:16:09;99070;;;-1.3;69
51195;BME280;37259;49.972;19.850;2023-04-06T00:17:09;99070;;;-1.3;69
51195;BME280;37259;49.972;19.850;2023-04-06T00:18:09;99070;;;-1.3;69
51195;BME280;37259;49.972;19.850;2023-04-06T00:19:09;99070;;;-1.3;68.9
51195;BME280;37259;49.972;19.850;2023-04-06T00:20:09;99070;;;-1.3;68.9
51195;BME280;37259;49.972;19.850;2023-04-06T00:21:11;99070;;;-1.3;68.9
51195;BME280;37259;49.972;19.850;2023-04-06T00:22:09;99070;;;-1.4;68.9
51195;BME280;37259;49.972;19.850;2023-04-06T00:23:09;99070;;;-1.4;68.9
51195;BME280;37259;49.972;19.850;2023-04-06T00:24:09;99060;;;-1.4;68.8
51195;BME280;37259;49.972;19.850;2023-04-06T00:25:09;99060;;;-1.4;68.8
51195;BME280;37259;49.972;19.850;2023-04-06T00:26:09;99060;;;-1.5;68.8
51195;BME280;37259;49.972;19.850;2023-04-06T00:27:09;99060;;;-1.5;68.8
51195;BME280;37259;49.972;19.850;2023-04-06T00:28:09;99060;;;-1.5;68.9
51195;BME280;37259;49.972;19.850;2023-04-06T00:29:09;99060;;;-1.5;68.9
51195;BME280;37259;49.972;19.850;2023-04-06T00:30:09;99060;;;-1.6;68.9
51195;BME280;37259;49.972;19.850;2023-04-06T00:31:09;99060;;;-1.6;68.9
51195;BME280;37259;49.972;19.850;2023-04-06T00:32:09;99060;;;-1.6;68.9
51195;BME280;37259;49.972;19.850;2023-04-06T00:33:09;99060;;;-1.6;68.9
51195;BME280;37259;49.972;19.850;2023-04-06T00:34:09;99060;;;-1.7;69
51195;BME280;37259;49.972;19.850;2023-04-06T00:35:09;99060;;;-1.7;69
51195;BME280;37259;49.972;19.850;2023-04-06T00:36:09;99060;;;-1.7;69
51195;BME280;37259;49.972;19.850;2023-04-06T00:37:10;99060;;;-1.7;69.2
51195;BME280;37259;49.972;19.850;2023-04-06T00:38:09;99060;;;-1.7;69.4
51195;BME280;37259;49.972;19.850;2023-04-06T00:39:09;99060;;;-1.8;69.5
51195;BME280;37259;49.972;19.850;2023-04-06T00:40:09;99060;;;-1.8;69.5
51195;BME280;37259;49.972;19.850;2023-04-06T00:41:09;99060;;;-1.8;69.7
51195;BME280;37259;49.972;19.850;2023-04-06T00:42:10;99050;;;-1.8;69.8
51195;BME280;37259;49.972;19.850;2023-04-06T00:43:09;99050;;;-1.8;69.8
51195;BME280;37259;49.972;19.850;2023-04-06T00:44:09;99050;;;-1.8;69.9
51195;BME280;37259;49.972;19.850;2023-04-06T00:45:09;99050;;;-1.8;69.9
51195;BME280;37259;49.972;19.850;2023-04-06T00:46:09;99050;;;-1.9;70
51195;BME280;37259;49.972;19.850;2023-04-06T00:47:09;99050;;;-1.9;70
51195;BME280;37259;49.972;19.850;2023-04-06T00:48:09;99050;;;-1.9;70
51195;BME280;37259;49.972;19.850;2023-04-06T00:49:09;99050;;;-1.9;70
51195;BME280;37259;49.972;19.850;2023-04-06T00:50:09;99050;;;-2;70.1
51195;BME280;37259;49.972;19.850;2023-04-06T00:51:09;99050;;;-2;70.2
51195;BME280;37259;49.972;19.850;2023-04-06T00:52:09;99050;;;-2;70.2
51195;BME280;37259;49.972;19.850;2023-04-06T00:53:09;99050;;;-2;70.2
51195;BME280;37259;49.972;19.850;2023-04-06T00:54:09;99050;;;-2;70.3
51195;BME280;37259;49.972;19.850;2023-04-06T00:55:09;99050;;;-2;70.3
51195;BME280;37259;49.972;19.850;2023-04-06T00:56:09;99050;;;-2.1;70.3
51195;BME280;37259;49.972;19.850;2023-04-06T00:57:09;99050;;;-2.1;70.4
51195;BME280;37259;49.972;19.850;2023-04-06T00:58:09;99050;;;-2.1;70.4
51195;BME280;37259;49.972;19.850;2023-04-06T00:59:09;99050;;;-2.1;70.5
51195;BME280;37259;49.972;19.850;2023-04-06T01:00:09;99050;;;-2.1;70.5
51195;BME280;37259;49.972;19.850;2023-04-06T01:01:09;99050;;;-2.2;70.6
51195;BME280;37259;49.972;19.850;2023-04-06T01:02:09;99050;;;-2.2;70.6
51195;BME280;37259;49.972;19.850;2023-04-06T01:03:09;99050;;;-2.2;70.7
51195;BME280;37259;49.972;19.850;2023-04-06T01:04:09;99050;;;-2.2;70.8
51195;BME280;37259;49.972;19.850;2023-04-06T01:05:09;99050;;;-2.2;70.9
51195;BME280;37259;49.972;19.850;2023-04-06T01:06:09;99050;;;-2.2;70.9
51195;BME280;37259;49.972;19.850;2023-04-06T01:07:09;99050;;;-2.2;71.1
51195;BME280;37259;49.972;19.850;2023-04-06T01:08:09;99050;;;-2.2;71.1
51195;BME280;37259;49.972;19.850;2023-04-06T01:09:09;99050;;;-2.2;71.2
51195;BME280;37259;49.972;19.850;2023-04-06T01:10:09;99050;;;-2.3;71.2
51195;BME280;37259;49.972;19.850;2023-04-06T01:11:09;99050;;;-2.3;71.2
51195;BME280;37259;49.972;19.850;2023-04-06T01:12:09;99050;;;-2.3;71.5
51195;BME280;37259;49.972;19.850;2023-04-06T01:13:09;99050;;;-2.3;71.5
51195;BME280;37259;49.972;19.850;2023-04-06T01:14:09;99050;;;-2.3;71.6
51195;BME280;37259;49.972;19.850;2023-04-06T01:15:09;99050;;;-2.3;71.6
51195;BME280;37259;49.972;19.850;2023-04-06T01:16:09;99050;;;-2.3;71.6
51195;BME280;37259;49.972;19.850;2023-04-06T01:17:09;99050;;;-2.3;71.7
51195;BME280;37259;49.972;19.850;2023-04-06T01:18:09;99050;;;-2.3;71.7
51195;BME280;37259;49.972;19.850;2023-04-06T01:19:09;99040;;;-2.4;72
51195;BME280;37259;49.972;19.850;2023-04-06T01:20:09;99040;;;-2.4;72.2
51195;BME280;37259;49.972;19.850;2023-04-06T01:21:09;99040;;;-2.4;72.2
51195;BME280;37259;49.972;19.850;2023-04-06T01:22:12;99040;;;-2.4;72.6
51195;BME280;37259;49.972;19.850;2023-04-06T01:23:09;99040;;;-2.4;72.6
51195;BME280;37259;49.972;19.850;2023-04-06T01:24:09;99040;;;-2.4;72.6
51195;BME280;37259;49.972;19.850;2023-04-06T01:25:10;99040;;;-2.4;72.6
51195;BME280;37259;49.972;19.850;2023-04-06T01:26:09;99040;;;-2.4;72.5
51195;BME280;37259;49.972;19.850;2023-04-06T01:27:09;99040;;;-2.4;72.6
51195;BME280;37259;49.972;19.850;2023-04-06T01:28:09;99040;;;-2.4;72.6
51195;BME280;37259;49.972;19.850;2023-04-06T01:29:09;99040;;;-2.4;72.6
51195;BME280;37259;49.972;19.850;2023-04-06T01:30:09;99040;;;-2.5;72.6
51195;BME280;37259;49.972;19.850;2023-04-06T01:31:09;99040;;;-2.5;72.6
51195;BME280;37259;49.972;19.850;2023-04-06T01:32:09;99040;;;-2.5;72.6
51195;BME280;37259;49.972;19.850;2023-04-06T01:33:09;99040;;;-2.5;72.6
51195;BME280;37259;49.972;19.850;2023-04-06T01:34:09;99040;;;-2.5;72.6
51195;BME280;37259;49.972;19.850;2023-04-06T01:35:09;99040;;;-2.5;72.8
51195;BME280;37259;49.972;19.850;2023-04-06T01:36:09;99040;;;-2.5;72.8
51195;BME280;37259;49.972;19.850;2023-04-06T01:37:09;99040;;;-2.5;72.8
51195;BME280;37259;49.972;19.850;2023-04-06T01:38:09;99040;;;-2.5;72.9
51195;BME280;37259;49.972;19.850;2023-04-06T01:39:09;99040;;;-2.5;72.9
51195;BME280;37259;49.972;19.850;2023-04-06T01:40:09;99040;;;-2.5;72.9
51195;BME280;37259;49.972;19.850;2023-04-06T01:41:09;99040;;;-2.5;73
51195;BME280;37259;49.972;19.850;2023-04-06T01:42:09;99040;;;-2.5;73.1
51195;BME280;37259;49.972;19.850;2023-04-06T01:43:09;99040;;;-2.5;73.1
51195;BME280;37259;49.972;19.850;2023-04-06T01:44:09;99040;;;-2.5;73.8
51195;BME280;37259;49.972;19.850;2023-04-06T01:45:09;99040;;;-2.5;73.9
51195;BME280;37259;49.972;19.850;2023-04-06T01:46:09;99040;;;-2.5;73.9
51195;BME280;37259;49.972;19.850;2023-04-06T01:47:09;99030;;;-2.5;74.2
51195;BME280;37259;49.972;19.850;2023-04-06T01:48:09;99030;;;-2.5;74.7
51195;BME280;37259;49.972;19.850;2023-04-06T01:49:09;99030;;;-2.5;74.7
51195;BME280;37259;49.972;19.850;2023-04-06T01:50:09;99030;;;-2.5;75.1
51195;BME280;37259;49.972;19.850;2023-04-06T01:51:09;99030;;;-2.5;75
51195;BME280;37259;49.972;19.850;2023-04-06T01:52:09;99030;;;-2.5;75
51195;BME280;37259;49.972;19.850;2023-04-06T01:53:09;99030;;;-2.5;75.1
51195;BME280;37259;49.972;19.850;2023-04-06T01:54:09;99030;;;-2.5;75.1
51195;BME280;37259;49.972;19.850;2023-04-06T01:55:09;99030;;;-2.5;75.1
51195;BME280;37259;49.972;19.850;2023-04-06T01:56:09;99030;;;-2.5;75.1
51195;BME280;37259;49.972;19.850;2023-04-06T01:57:09;99030;;;-2.6;75
51195;BME280;37259;49.972;19.850;2023-04-06T01:58:09;99030;;;-2.6;75
51195;BME280;37259;49.972;19.850;2023-04-06T01:59:09;99030;;;-2.6;74.9
51195;BME280;37259;49.972;19.850;2023-04-06T02:00:09;99030;;;-2.6;74.9
51195;BME280;37259;49.972;19.850;2023-04-06T02:01:09;99030;;;-2.6;74.7
51195;BME280;37259;49.972;19.850;2023-04-06T02:02:09;99030;;;-2.6;74.7
51195;BME280;37259;49.972;19.850;2023-04-06T02:03:09;99030;;;-2.6;74.7
51195;BME280;37259;49.972;19.850;2023-04-06T02:04:09;99030;;;-2.7;74.6
51195;BME280;37259;49.972;19.850;2023-04-06T02:05:09;99020;;;-2.7;74.6
51195;BME280;37259;49.972;19.850;2023-04-06T02:06:09;99020;;;-2.7;74.5
51195;BME280;37259;49.972;19.850;2023-04-06T02:07:09;99020;;;-2.7;74.5
51195;BME280;37259;49.972;19.850;2023-04-06T02:08:09;99020;;;-2.7;74.4
51195;BME280;37259;49.972;19.850;2023-04-06T02:09:09;99020;;;-2.7;74.4
51195;BME280;37259;49.972;19.850;2023-04-06T02:10:11;99020;;;-2.7;74.6
51195;BME280;37259;49.972;19.850;2023-04-06T02:11:09;99020;;;-2.7;75
51195;BME280;37259;49.972;19.850;2023-04-06T02:12:09;99020;;;-2.7;75.5
51195;BME280;37259;49.972;19.850;2023-04-06T02:13:09;99020;;;-2.7;75.5
51195;BME280;37259;49.972;19.850;2023-04-06T02:14:09;99020;;;-2.7;75.8
51195;BME280;37259;49.972;19.850;2023-04-06T02:15:09;99020;;;-2.7;75.8
51195;BME280;37259;49.972;19.850;2023-04-06T02:16:09;99020;;;-2.7;75.7
51195;BME280;37259;49.972;19.850;2023-04-06T02:17:09;99020;;;-2.7;75.7
51195;BME280;37259;49.972;19.850;2023-04-06T02:18:09;99020;;;-2.7;75.6
51195;BME280;37259;49.972;19.850;2023-04-06T02:19:09;99020;;;-2.7;75.6
51195;BME280;37259;49.972;19.850;2023-04-06T02:20:09;99020;;;-2.7;75.6
51195;BME280;37259;49.972;19.850;2023-04-06T02:21:09;99020;;;-2.7;75.5
51195;BME280;37259;49.972;19.850;2023-04-06T02:22:09;99020;;;-2.7;75.5
51195;BME280;37259;49.972;19.850;2023-04-06T02:23:09;99020;;;-2.8;75.5
51195;BME280;37259;49.972;19.850;2023-04-06T02:24:09;99020;;;-2.8;75.5
51195;BME280;37259;49.972;19.850;2023-04-06T02:25:09;99020;;;-2.8;75.6
51195;BME280;37259;49.972;19.850;2023-04-06T02:26:09;99020;;;-2.8;75.6
51195;BME280;37259;49.972;19.850;2023-04-06T02:27:09;99020;;;-2.8;76
51195;BME280;37259;49.972;19.850;2023-04-06T02:28:09;99020;;;-2.8;76
51195;BME280;37259;49.972;19.850;2023-04-06T02:29:09;99020;;;-2.8;76
51195;BME280;37259;49.972;19.850;2023-04-06T02:30:09;99020;;;-2.8;76
51195;BME280;37259;49.972;19.850;2023-04-06T02:31:09;99020;;;-2.9;76
51195;BME280;37259;49.972;19.850;2023-04-06T02:32:09;99020;;;-2.9;76.1
51195;BME280;37259;49.972;19.850;2023-04-06T02:33:09;99020;;;-2.9;76.1
51195;BME280;37259;49.972;19.850;2023-04-06T02:34:09;99020;;;-2.9;76.1
51195;BME280;37259;49.972;19.850;2023-04-06T02:35:09;99020;;;-2.9;76.1
51195;BME280;37259;49.972;19.850;2023-04-06T02:36:09;99020;;;-2.9;76.1
51195;BME280;37259;49.972;19.850;2023-04-06T02:37:09;99020;;;-2.9;76.1
51195;BME280;37259;49.972;19.850;2023-04-06T02:38:09;99020;;;-2.9;76
51195;BME280;37259;49.972;19.850;2023-04-06T02:39:09;99020;;;-2.9;76
51195;BME280;37259;49.972;19.850;2023-04-06T02:40:10;99010;;;-2.9;76.3
51195;BME280;37259;49.972;19.850;2023-04-06T02:41:09;99010;;;-2.9;76.3
51195;BME280;37259;49.972;19.850;2023-04-06T02:42:09;99010;;;-2.9;76.3
51195;BME280;37259;49.972;19.850;2023-04-06T02:43:10;99010;;;-2.9;76.3
51195;BME280;37259;49.972;19.850;2023-04-06T02:44:09;99020;;;-2.9;76.4
51195;BME280;37259;49.972;19.850;2023-04-06T02:45:09;99020;;;-3;76.4
51195;BME280;37259;49.972;19.850;2023-04-06T02:46:09;99020;;;-3;76.3
51195;BME280;37259;49.972;19.850;2023-04-06T02:47:09;99020;;;-3;76.2
51195;BME280;37259;49.972;19.850;2023-04-06T02:48:09;99020;;;-3;76.1
51195;BME280;37259;49.972;19.850;2023-04-06T02:49:09;99020;;;-3;76.1
51195;BME280;37259;49.972;19.850;2023-04-06T02:50:09;99020;;;-3;76
51195;BME280;37259;49.972;19.850;2023-04-06T02:51:09;99020;;;-3;76
51195;BME280;37259;49.972;19.850;2023-04-06T02:52:09;99020;;;-3;75.9
51195;BME280;37259;49.972;19.850;2023-04-06T02:53:09;99020;;;-3;75.9
51195;BME280;37259;49.972;19.850;2023-04-06T02:54:09;99020;;;-3.1;75.9
51195;BME280;37259;49.972;19.850;2023-04-06T02:55:09;99020;;;-3.1;75.8
51195;BME280;37259;49.972;19.850;2023-04-06T02:56:09;99030;;;-3.1;75.8
51195;BME280;37259;49.972;19.850;2023-04-06T02:57:09;99030;;;-3.1;75.8
51195;BME280;37259;49.972;19.850;2023-04-06T02:58:09;99030;;;-3.1;75.7
51195;BME280;37259;49.972;19.850;2023-04-06T02:59:09;99030;;;-3.1;75.7
51195;BME280;37259;49.972;19.850;2023-04-06T03:00:09;99030;;;-3.1;75.7
51195;BME280;37259;49.972;19.850;2023-04-06T03:01:09;99030;;;-3.1;75.7
51195;BME280;37259;49.972;19.850;2023-04-06T03:02:09;99030;;;-3.1;75.7
51195;BME280;37259;49.972;19.850;2023-04-06T03:03:09;99030;;;-3.2;75.7
51195;BME280;37259;49.972;19.850;2023-04-06T03:04:09;99030;;;-3.2;75.7
51195;BME280;37259;49.972;19.850;2023-04-06T03:05:09;99030;;;-3.2;75.7
51195;BME280;37259;49.972;19.850;2023-04-06T03:06:09;99030;;;-3.2;75.7
51195;BME280;37259;49.972;19.850;2023-04-06T03:07:09;99030;;;-3.2;75.7
51195;BME280;37259;49.972;19.850;2023-04-06T03:08:09;99030;;;-3.2;75.7
51195;BME280;37259;49.972;19.850;2023-04-06T03:09:09;99030;;;-3.2;75.7
51195;BME280;37259;49.972;19.850;2023-04-06T03:10:09;99030;;;-3.2;75.7
51195;BME280;37259;49.972;19.850;2023-04-06T03:11:09;99030;;;-3.2;75.7
51195;BME280;37259;49.972;19.850;2023-04-06T03:12:09;99030;;;-3.2;75.7
51195;BME280;37259;49.972;19.850;2023-04-06T03:13:09;99030;;;-3.2;75.7
51195;BME280;37259;49.972;19.850;2023-04-06T03:14:09;99030;;;-3.2;75.8
51195;BME280;37259;49.972;19.850;2023-04-06T03:15:09;99030;;;-3.2;75.8
51195;BME280;37259;49.972;19.850;2023-04-06T03:16:09;99030;;;-3.2;75.8
51195;BME280;37259;49.972;19.850;2023-04-06T03:17:09;99030;;;-3.2;75.9
51195;BME280;37259;49.972;19.850;2023-04-06T03:18:09;99030;;;-3.2;76
51195;BME280;37259;49.972;19.850;2023-04-06T03:19:09;99030;;;-3.2;76
51195;BME280;37259;49.972;19.850;2023-04-06T03:20:09;99030;;;-3.2;76.5
51195;BME280;37259;49.972;19.850;2023-04-06T03:21:09;99030;;;-3.2;76.6
51195;BME280;37259;49.972;19.850;2023-04-06T03:22:09;99030;;;-3.2;76.6
51195;BME280;37259;49.972;19.850;2023-04-06T03:23:09;99030;;;-3.2;76.7
51195;BME280;37259;49.972;19.850;2023-04-06T03:24:09;99030;;;-3.2;76.7
51195;BME280;37259;49.972;19.850;2023-04-06T03:25:09;99030;;;-3.2;76.7
51195;BME280;37259;49.972;19.850;2023-04-06T03:26:09;99030;;;-3.2;76.6
51195;BME280;37259;49.972;19.850;2023-04-06T03:27:09;99030;;;-3.2;76.6
51195;BME280;37259;49.972;19.850;2023-04-06T03:28:09;99030;;;-3.2;76.7
51195;BME280;37259;49.972;19.850;2023-04-06T03:29:09;99040;;;-3.2;76.7
51195;BME280;37259;49.972;19.850;2023-04-06T03:30:09;99040;;;-3.2;76.7
51195;BME280;37259;49.972;19.850;2023-04-06T03:31:09;99040;;;-3.2;76.6
51195;BME280;37259;49.972;19.850;2023-04-06T03:32:09;99040;;;-3.2;76.6
51195;BME280;37259;49.972;19.850;2023-04-06T03:33:09;99040;;;-3.2;76.6
51195;BME280;37259;49.972;19.850;2023-04-06T03:34:09;99040;;;-3.2;76.6
51195;BME280;37259;49.972;19.850;2023-04-06T03:35:09;99040;;;-3.2;76.6
51195;BME280;37259;49.972;19.850;2023-04-06T03:36:09;99040;;;-3.2;76.6
51195;BME280;37259;49.972;19.850;2023-04-06T03:37:09;99040;;;-3.2;76.6
51195;BME280;37259;49.972;19.850;2023-04-06T03:38:09;99040;;;-3.2;76.6
51195;BME280;37259;49.972;19.850;2023-04-06T03:39:09;99040;;;-3.2;76.5
51195;BME280;37259;49.972;19.850;2023-04-06T03:40:09;99040;;;-3.2;76.5
51195;BME280;37259;49.972;19.850;2023-04-06T03:41:09;99040;;;-3.3;76.5
51195;BME280;37259;49.972;19.850;2023-04-06T03:42:09;99040;;;-3.3;76.5
51195;BME280;37259;49.972;19.850;2023-04-06T03:43:09;99030;;;-3.3;76.5
51195;BME280;37259;49.972;19.850;2023-04-06T03:44:09;99030;;;-3.3;76.5
51195;BME280;37259;49.972;19.850;2023-04-06T03:45:09;99030;;;-3.3;76.5
51195;BME280;37259;49.972;19.850;2023-04-06T03:46:09;99040;;;-3.3;76.5
51195;BME280;37259;49.972;19.850;2023-04-06T03:47:09;99040;;;-3.3;76.5
51195;BME280;37259;49.972;19.850;2023-04-06T03:48:09;99040;;;-3.3;76.5
51195;BME280;37259;49.972;19.850;2023-04-06T03:49:09;99040;;;-3.3;76.4
51195;BME280;37259;49.972;19.850;2023-04-06T03:50:09;99040;;;-3.3;76.4
51195;BME280;37259;49.972;19.850;2023-04-06T03:51:09;99040;;;-3.3;76.4
51195;BME280;37259;49.972;19.850;2023-04-06T03:52:09;99040;;;-3.3;76.4
51195;BME280;37259;49.972;19.850;2023-04-06T03:53:09;99040;;;-3.3;77.1
51195;BME280;37259;49.972;19.850;2023-04-06T03:54:09;99040;;;-3.3;77.5
51195;BME280;37259;49.972;19.850;2023-04-06T03:55:09;99040;;;-3.3;77.6
51195;BME280;37259;49.972;19.850;2023-04-06T03:56:09;99040;;;-3.3;77.6
51195;BME280;37259;49.972;19.850;2023-04-06T03:57:09;99040;;;-3.3;77.6
51195;BME280;37259;49.972;19.850;2023-04-06T03:58:09;99040;;;-3.3;77.6
51195;BME280;37259;49.972;19.850;2023-04-06T03:59:09;99040;;;-3.3;77.6
51195;BME280;37259;49.972;19.850;2023-04-06T04:00:09;99040;;;-3.3;77.6
51195;BME280;37259;49.972;19.850;2023-04-06T04:01:09;99040;;;-3.3;77.6
51195;BME280;37259;49.972;19.850;2023-04-06T04:02:09;99040;;;-3.3;77.7
51195;BME280;37259;49.972;19.850;2023-04-06T04:03:09;99040;;;-3.3;77.7
51195;BME280;37259;49.972;19.850;2023-04-06T04:04:09;99040;;;-3.3;77.7
51195;BME280;37259;49.972;19.850;2023-04-06T04:05:09;99040;;;-3.3;77.6
51195;BME280;37259;49.972;19.850;2023-04-06T04:06:09;99040;;;-3.3;77.6
51195;BME280;37259;49.972;19.850;2023-04-06T04:07:09;99040;;;-3.3;77.6
51195;BME280;37259;49.972;19.850;2023-04-06T04:08:09;99040;;;-3.3;77.6
51195;BME280;37259;49.972;19.850;2023-04-06T04:09:09;99040;;;-3.3;77.6
51195;BME280;37259;49.972;19.850;2023-04-06T04:10:09;99040;;;-3.3;77.5
51195;BME280;37259;49.972;19.850;2023-04-06T04:11:09;99040;;;-3.3;77.5
51195;BME280;37259;49.972;19.850;2023-04-06T04:12:09;99040;;;-3.3;77.5
51195;BME280;37259;49.972;19.850;2023-04-06T04:13:09;99040;;;-3.2;77.4
51195;BME280;37259;49.972;19.850;2023-04-06T04:14:09;99040;;;-3.2;77.4
51195;BME280;37259;49.972;19.850;2023-04-06T04:15:09;99040;;;-3.2;77.4
51195;BME280;37259;49.972;19.850;2023-04-06T04:16:09;99040;;;-3.2;77.4
51195;BME280;37259;49.972;19.850;2023-04-06T04:17:09;99040;;;-3.2;77.3
51195;BME280;37259;49.972;19.850;2023-04-06T04:18:09;99040;;;-3.2;77.3
51195;BME280;37259;49.972;19.850;2023-04-06T04:19:09;99040;;;-3.2;77.3
51195;BME280;37259;49.972;19.850;2023-04-06T04:20:09;99040;;;-3.2;77.3
51195;BME280;37259;49.972;19.850;2023-04-06T04:21:09;99040;;;-3.2;77.8
51195;BME280;37259;49.972;19.850;2023-04-06T04:22:09;99040;;;-3.2;78
51195;BME280;37259;49.972;19.850;2023-04-06T04:23:09;99040;;;-3.1;78.1
51195;BME280;37259;49.972;19.850;2023-04-06T04:24:09;99040;;;-3.1;78.1
51195;BME280;37259;49.972;19.850;2023-04-06T04:25:09;99040;;;-3.1;78.1
51195;BME280;37259;49.972;19.850;2023-04-06T04:26:09;99040;;;-3.1;78.1
51195;BME280;37259;49.972;19.850;2023-04-06T04:27:09;99040;;;-3.1;78.1
51195;BME280;37259;49.972;19.850;2023-04-06T04:28:09;99040;;;-3;78.1
51195;BME280;37259;49.972;19.850;2023-04-06T04:29:09;99040;;;-3;78.1
51195;BME280;37259;49.972;19.850;2023-04-06T04:30:09;99040;;;-3;78.1
51195;BME280;37259;49.972;19.850;2023-04-06T04:31:09;99040;;;-3;78.1
51195;BME280;37259;49.972;19.850;2023-04-06T04:32:09;99040;;;-2.9;78.2
51195;BME280;37259;49.972;19.850;2023-04-06T04:33:09;99040;;;-2.9;78.2
51195;BME280;37259;49.972;19.850;2023-04-06T04:34:09;99040;;;-2.9;78.3
51195;BME280;37259;49.972;19.850;2023-04-06T04:35:09;99040;;;-2.9;78.3
51195;BME280;37259;49.972;19.850;2023-04-06T04:36:09;99040;;;-2.8;78.3
51195;BME280;37259;49.972;19.850;2023-04-06T04:37:09;99040;;;-2.8;78.3
51195;BME280;37259;49.972;19.850;2023-04-06T04:38:09;99040;;;-2.8;78.2
51195;BME280;37259;49.972;19.850;2023-04-06T04:39:09;99040;;;-2.8;78.2
51195;BME280;37259;49.972;19.850;2023-04-06T04:40:09;99040;;;-2.7;78.1
51195;BME280;37259;49.972;19.850;2023-04-06T04:41:09;99040;;;-2.7;78.1
51195;BME280;37259;49.972;19.850;2023-04-06T04:42:09;99040;;;-2.7;78
51195;BME280;37259;49.972;19.850;2023-04-06T04:43:09;99040;;;-2.6;78
51195;BME280;37259;49.972;19.850;2023-04-06T04:44:09;99040;;;-2.6;78
51195;BME280;37259;49.972;19.850;2023-04-06T04:45:09;99030;;;-2.6;77.9
51195;BME280;37259;49.972;19.850;2023-04-06T04:46:09;99030;;;-2.6;77.9
51195;BME280;37259;49.972;19.850;2023-04-06T04:47:09;99030;;;-2.5;77.8
51195;BME280;37259;49.972;19.850;2023-04-06T04:48:09;99030;;;-2.5;77.8
51195;BME280;37259;49.972;19.850;2023-04-06T04:49:09;99030;;;-2.5;77.7
51195;BME280;37259;49.972;19.850;2023-04-06T04:50:09;99030;;;-2.5;77.7
51195;BME280;37259;49.972;19.850;2023-04-06T04:51:09;99030;;;-2.5;77.7
51195;BME280;37259;49.972;19.850;2023-04-06T04:52:09;99030;;;-2.4;77.7
51195;BME280;37259;49.972;19.850;2023-04-06T04:53:09;99030;;;-2.4;77.7
51195;BME280;37259;49.972;19.850;2023-04-06T04:54:09;99030;;;-2.4;77.7
51195;BME280;37259;49.972;19.850;2023-04-06T04:55:09;99040;;;-2.3;77.7
51195;BME280;37259;49.972;19.850;2023-04-06T04:56:09;99040;;;-2.3;77.6
51195;BME280;37259;49.972;19.850;2023-04-06T04:57:09;99040;;;-2.3;77.6
51195;BME280;37259;49.972;19.850;2023-04-06T04:58:09;99040;;;-2.2;77.6
51195;BME280;37259;49.972;19.850;2023-04-06T04:59:09;99040;;;-2.2;77.6
51195;BME280;37259;49.972;19.850;2023-04-06T05:00:09;99040;;;-2.1;77.5
51195;BME280;37259;49.972;19.850;2023-04-06T05:01:09;99040;;;-2.1;77.5
51195;BME280;37259;49.972;19.850;2023-04-06T05:02:09;99040;;;-2.1;77.5
51195;BME280;37259;49.972;19.850;2023-04-06T05:03:09;99040;;;-2;77.6
51195;BME280;37259;49.972;19.850;2023-04-06T05:04:09;99040;;;-2;77.6
51195;BME280;37259;49.972;19.850;2023-04-06T05:05:09;99040;;;-1.9;77.6
51195;BME280;37259;49.972;19.850;2023-04-06T05:06:09;99030;;;-1.9;77.6
51195;BME280;37259;49.972;19.850;2023-04-06T05:07:09;99030;;;-1.9;77.6
51195;BME280;37259;49.972;19.850;2023-04-06T05:08:09;99030;;;-1.8;77.6
51195;BME280;37259;49.972;19.850;2023-04-06T05:09:09;99030;;;-1.8;77.6
51195;BME280;37259;49.972;19.850;2023-04-06T05:10:09;99030;;;-1.8;77.6
51195;BME280;37259;49.972;19.850;2023-04-06T05:11:09;99030;;;-1.7;77.6
51195;BME280;37259;49.972;19.850;2023-04-06T05:12:09;99030;;;-1.6;77.6
51195;BME280;37259;49.972;19.850;2023-04-06T05:13:09;99030;;;-1.6;77.6
51195;BME280;37259;49.972;19.850;2023-04-06T05:14:09;99030;;;-1.5;77.5
51195;BME280;37259;49.972;19.850;2023-04-06T05:15:09;99030;;;-1.5;77.5
51195;BME280;37259;49.972;19.850;2023-04-06T05:16:09;99030;;;-1.4;77.5
51195;BME280;37259;49.972;19.850;2023-04-06T05:17:09;99030;;;-1.4;77.5
51195;BME280;37259;49.972;19.850;2023-04-06T05:18:09;99030;;;-1.4;77.2
51195;BME280;37259;49.972;19.850;2023-04-06T05:19:09;99030;;;-1.3;77.1
51195;BME280;37259;49.972;19.850;2023-04-06T05:20:09;99030;;;-1.3;77.1
51195;BME280;37259;49.972;19.850;2023-04-06T05:21:09;99030;;;-1.3;77
51195;BME280;37259;49.972;19.850;2023-04-06T05:22:09;99030;;;-1.2;77
51195;BME280;37259;49.972;19.850;2023-04-06T05:23:09;99030;;;-1.2;76.6
51195;BME280;37259;49.972;19.850;2023-04-06T05:24:09;99030;;;-1.2;76.6
51195;BME280;37259;49.972;19.850;2023-04-06T05:25:09;99030;;;-1.1;76.5
51195;BME280;37259;49.972;19.850;2023-04-06T05:26:09;99030;;;-1.1;76.5
51195;BME280;37259;49.972;19.850;2023-04-06T05:27:09;99030;;;-1;76.5
51195;BME280;37259;49.972;19.850;2023-04-06T05:28:09;99030;;;-1;76.5
51195;BME280;37259;49.972;19.850;2023-04-06T05:29:09;99030;;;-0.9;76.3
51195;BME280;37259;49.972;19.850;2023-04-06T05:30:09;99030;;;-0.9;76.2
51195;BME280;37259;49.972;19.850;2023-04-06T05:31:09;99030;;;-0.8;76.1
51195;BME280;37259;49.972;19.850;2023-04-06T05:32:09;99030;;;-0.8;76
51195;BME280;37259;49.972;19.850;2023-04-06T05:33:09;99030;;;-0.8;76
51195;BME280;37259;49.972;19.850;2023-04-06T05:34:09;99030;;;-0.7;76
51195;BME280;37259;49.972;19.850;2023-04-06T05:35:09;99030;;;-0.7;76
51195;BME280;37259;49.972;19.850;2023-04-06T05:36:09;99020;;;-0.6;75.8
51195;BME280;37259;49.972;19.850;2023-04-06T05:37:09;99020;;;-0.6;75.8